Time;durP1;ratioP1;P1;durP2;ratioP2;P2;SDS_P1;SDS_P2;PMS_P1;PMS_P2;Temp;Humidity;BMP_temperature;BMP_pressure;BME280_temperature;BME280_humidity;BME280_pressure;Samples;Min_cycle;Max_cycle;Signal;HPM_P1;HPM_P2
2022/05/30 00:01:04;;;;;;;5.97;1.33;;;;;;;;;;4996244;28;20049;-70
2022/05/30 00:03:29;;;;;;;6.32;1.80;;;;;;;;;;4996950;28;20116;-69
2022/05/30 00:05:54;;;;;;;7.68;1.83;;;;;;;;;;4994079;28;20846;-69
2022/05/30 00:08:20;;;;;;;9.75;1.70;;;;;;;;;;4987458;28;20079;-69
2022/05/30 00:10:45;;;;;;;10.93;1.60;;;;;;;;;;4995236;28;20065;-69
2022/05/30 00:13:12;;;;;;;8.05;1.42;;;;;;;;;;4996005;28;20401;-69
2022/05/30 00:15:41;;;;;;;8.90;1.50;;;;;;;;;;4995070;28;20044;-70
2022/05/30 00:18:09;;;;;;;7.85;1.98;;;;;;;;;;4995692;28;20773;-69
2022/05/30 00:20:34;;;;;;;7.70;1.38;;;;;;;;;;4990369;28;20107;-69
2022/05/30 00:23:02;;;;;;;11.50;1.50;;;;;;;;;;4972437;28;20033;-70
2022/05/30 00:25:28;;;;;;;9.93;1.63;;;;;;;;;;4986820;28;20061;-70
2022/05/30 00:27:53;;;;;;;6.65;1.33;;;;;;;;;;4976946;28;20043;-70
2022/05/30 00:30:19;;;;;;;6.97;1.40;;;;;;;;;;4968943;28;20040;-70
2022/05/30 00:32:44;;;;;;;6.25;1.40;;;;;;;;;;4973497;28;20153;-70
2022/05/30 00:35:11;;;;;;;8.93;2.05;;;;;;;;;;4975300;28;20239;-69
2022/05/30 00:37:37;;;;;;;9.63;1.67;;;;;;;;;;4972950;28;20038;-70
2022/05/30 00:40:03;;;;;;;9.73;1.70;;;;;;;;;;4973088;28;20124;-69
2022/05/30 00:42:31;;;;;;;9.88;1.52;;;;;;;;;;4973466;28;20040;-70
2022/05/30 00:44:57;;;;;;;11.13;1.70;;;;;;;;;;4972602;28;20033;-69
2022/05/30 00:47:25;;;;;;;9.48;1.35;;;;;;;;;;4973894;28;20053;-70
2022/05/30 00:49:50;;;;;;;8.27;1.52;;;;;;;;;;4975515;28;20145;-70
2022/05/30 00:52:19;;;;;;;9.88;1.45;;;;;;;;;;4972277;28;20042;-69
2022/05/30 00:54:52;;;;;;;8.13;1.58;;;;;;;;;;4977191;28;20809;-69
2022/05/30 00:57:21;;;;;;;8.57;1.55;;;;;;;;;;4955595;28;20041;-69
2022/05/30 00:59:58;;;;;;;8.85;1.40;;;;;;;;;;4974991;28;20042;-69
2022/05/30 01:02:25;;;;;;;7.20;1.63;;;;;;;;;;4976115;28;20049;-70
2022/05/30 01:07:36;;;;;;;10.65;1.92;;;;;;;;;;4975403;28;20117;-70
2022/05/30 01:10:03;;;;;;;7.35;1.70;;;;;;;;;;4986956;28;20130;-69
2022/05/30 01:12:39;;;;;;;14.13;3.03;;;;;;;;;;4975585;28;20041;-68
2022/05/30 01:15:29;;;;;;;21.92;2.63;;;;;;;;;;4956834;28;20041;-69
2022/05/30 01:17:59;;;;;;;9.15;1.80;;;;;;;;;;4958985;28;20042;-67
2022/05/30 01:20:43;;;;;;;8.73;1.85;;;;;;;;;;4957765;28;21996;-69
2022/05/30 01:23:15;;;;;;;12.93;2.45;;;;;;;;;;4912993;28;22449;-69
2022/05/30 01:25:52;;;;;;;8.63;1.77;;;;;;;;;;4956750;28;20045;-69
2022/05/30 01:28:23;;;;;;;7.68;1.30;;;;;;;;;;4957203;28;20124;-69
2022/05/30 01:30:49;;;;;;;10.00;1.92;;;;;;;;;;4958286;28;20065;-69
2022/05/30 01:33:14;;;;;;;10.40;1.70;;;;;;;;;;4960064;28;20117;-69
2022/05/30 01:35:39;;;;;;;8.23;1.35;;;;;;;;;;4957752;28;20069;-69
2022/05/30 01:38:05;;;;;;;8.20;1.38;;;;;;;;;;4944017;28;20052;-68
2022/05/30 01:40:31;;;;;;;13.20;1.23;;;;;;;;;;4958865;28;20073;-67
2022/05/30 01:42:57;;;;;;;5.68;1.08;;;;;;;;;;4958046;28;20042;-67
2022/05/30 01:45:23;;;;;;;9.32;1.30;;;;;;;;;;4958833;28;20042;-69
2022/05/30 01:47:51;;;;;;;8.88;1.15;;;;;;;;;;4969781;28;20099;-67
2022/05/30 01:50:18;;;;;;;8.20;1.10;;;;;;;;;;4976363;28;20038;-68
2022/05/30 01:52:44;;;;;;;7.32;1.23;;;;;;;;;;4972637;28;20542;-68
2022/05/30 01:55:10;;;;;;;8.93;1.45;;;;;;;;;;4972525;28;20062;-67
2022/05/30 01:57:37;;;;;;;13.25;1.40;;;;;;;;;;4972910;28;20145;-67
2022/05/30 02:00:04;;;;;;;7.95;1.30;;;;;;;;;;4970982;28;20958;-67
2022/05/30 02:02:34;;;;;;;7.10;1.30;;;;;;;;;;4971476;28;20050;-67
2022/05/30 02:04:59;;;;;;;13.15;1.63;;;;;;;;;;4975185;28;20140;-66
2022/05/30 02:07:24;;;;;;;12.43;1.50;;;;;;;;;;4979885;28;20990;-68
2022/05/30 02:09:50;;;;;;;9.18;1.63;;;;;;;;;;4973270;28;25285;-67
2022/05/30 02:12:15;;;;;;;7.90;1.63;;;;;;;;;;4975886;28;20168;-68
2022/05/30 02:14:43;;;;;;;6.10;1.30;;;;;;;;;;4977921;28;20127;-66
2022/05/30 02:17:08;;;;;;;8.05;1.30;;;;;;;;;;4975909;28;20045;-67
2022/05/30 02:19:38;;;;;;;11.40;1.52;;;;;;;;;;4953654;28;20041;-67
2022/05/30 02:22:05;;;;;;;10.00;1.70;;;;;;;;;;4977225;28;20041;-68
2022/05/30 02:24:30;;;;;;;10.48;2.17;;;;;;;;;;4976831;28;20844;-68
2022/05/30 02:26:56;;;;;;;5.40;1.25;;;;;;;;;;4977269;28;20044;-68
2022/05/30 02:29:21;;;;;;;9.57;1.15;;;;;;;;;;4981410;28;20048;-67
2022/05/30 02:31:46;;;;;;;11.75;1.38;;;;;;;;;;4977489;28;20053;-67
2022/05/30 02:36:56;;;;;;;8.18;1.17;;;;;;;;;;4977710;28;20981;-68
2022/05/30 02:39:22;;;;;;;7.38;1.00;;;;;;;;;;4978037;28;20038;-68
2022/05/30 02:41:50;;;;;;;9.98;1.33;;;;;;;;;;4976438;28;21031;-68
2022/05/30 02:44:20;;;;;;;10.65;1.35;;;;;;;;;;4974261;28;20046;-68
2022/05/30 02:46:46;;;;;;;10.73;1.83;;;;;;;;;;4970221;28;20043;-67
2022/05/30 02:49:12;;;;;;;7.95;1.30;;;;;;;;;;4975082;28;20037;-68
2022/05/30 02:51:37;;;;;;;8.32;1.38;;;;;;;;;;4977131;28;20561;-68
2022/05/30 02:54:03;;;;;;;9.30;2.22;;;;;;;;;;4976174;28;20030;-67
2022/05/30 02:56:28;;;;;;;5.15;1.20;;;;;;;;;;4959946;28;20121;-70
2022/05/30 02:58:56;;;;;;;8.65;1.50;;;;;;;;;;4973675;28;20026;-68
2022/05/30 03:01:24;;;;;;;15.40;1.70;;;;;;;;;;4972462;28;22761;-67
2022/05/30 03:03:50;;;;;;;9.15;1.88;;;;;;;;;;4965958;28;22416;-68
2022/05/30 03:06:18;;;;;;;11.27;1.40;;;;;;;;;;4974181;28;20132;-67
2022/05/30 03:08:43;;;;;;;7.90;1.88;;;;;;;;;;4977220;28;20091;-70
2022/05/30 03:11:10;;;;;;;7.40;1.10;;;;;;;;;;4980154;28;20033;-69
2022/05/30 03:13:35;;;;;;;8.55;1.25;;;;;;;;;;4976775;28;20030;-70
2022/05/30 03:16:01;;;;;;;8.35;1.60;;;;;;;;;;4972189;28;20773;-70
2022/05/30 03:18:26;;;;;;;15.77;1.55;;;;;;;;;;4975805;28;20220;-70
2022/05/30 03:20:55;;;;;;;6.57;1.10;;;;;;;;;;4974838;28;20037;-69
2022/05/30 03:23:21;;;;;;;9.88;1.23;;;;;;;;;;4973965;28;20266;-69
2022/05/30 03:25:46;;;;;;;4.72;1.00;;;;;;;;;;4975665;28;20045;-69
2022/05/30 03:28:14;;;;;;;8.82;1.20;;;;;;;;;;4974184;28;20045;-66
2022/05/30 03:30:40;;;;;;;12.38;1.60;;;;;;;;;;4964140;28;20045;-69
2022/05/30 03:33:06;;;;;;;10.10;1.50;;;;;;;;;;4972746;28;20045;-70
2022/05/30 03:35:33;;;;;;;9.07;1.20;;;;;;;;;;4975957;28;20084;-70
2022/05/30 03:37:58;;;;;;;9.85;2.00;;;;;;;;;;4975420;28;20120;-70
2022/05/30 03:40:24;;;;;;;8.77;1.80;;;;;;;;;;4975780;28;20034;-70
2022/05/30 03:42:50;;;;;;;7.40;2.10;;;;;;;;;;4961700;28;20033;-70
2022/05/30 03:45:15;;;;;;;6.53;1.50;;;;;;;;;;4974555;28;20077;-70
2022/05/30 03:47:42;;;;;;;6.10;1.63;;;;;;;;;;4958089;28;20128;-70
2022/05/30 03:50:09;;;;;;;5.88;1.52;;;;;;;;;;4976372;28;20735;-65
2022/05/30 03:52:34;;;;;;;7.50;1.60;;;;;;;;;;4973128;28;20194;-66
2022/05/30 03:55:13;;;;;;;5.60;1.92;;;;;;;;;;4963577;28;20872;-66
2022/05/30 03:57:40;;;;;;;6.47;1.75;;;;;;;;;;4971876;28;20141;-65
2022/05/30 04:00:06;;;;;;;8.57;2.22;;;;;;;;;;4966764;28;20771;-66
2022/05/30 04:02:31;;;;;;;6.82;1.90;;;;;;;;;;4986481;28;20052;-66
2022/05/30 04:04:57;;;;;;;10.55;2.97;;;;;;;;;;4970305;28;20089;-66
2022/05/30 04:07:22;;;;;;;7.40;2.38;;;;;;;;;;4979192;28;21101;-65
2022/05/30 04:09:48;;;;;;;7.05;2.15;;;;;;;;;;4974360;28;20042;-65
2022/05/30 04:12:13;;;;;;;8.48;2.40;;;;;;;;;;4972237;28;20177;-66
2022/05/30 04:14:39;;;;;;;10.38;2.80;;;;;;;;;;4970884;28;20073;-66
2022/05/30 04:17:04;;;;;;;8.75;2.50;;;;;;;;;;4970872;28;20093;-66
2022/05/30 04:19:29;;;;;;;7.78;2.50;;;;;;;;;;4972708;28;20045;-66
2022/05/30 04:21:55;;;;;;;5.05;2.40;;;;;;;;;;4972564;28;20050;-66
2022/05/30 04:24:20;;;;;;;7.15;1.80;;;;;;;;;;4972664;28;20175;-66
2022/05/30 04:26:46;;;;;;;7.60;2.08;;;;;;;;;;4975809;28;20943;-65
2022/05/30 04:29:13;;;;;;;10.88;2.60;;;;;;;;;;4972273;28;20095;-65
2022/05/30 04:31:39;;;;;;;8.27;2.30;;;;;;;;;;4973042;28;21551;-66
2022/05/30 04:34:05;;;;;;;8.18;2.20;;;;;;;;;;4964663;28;20045;-66
2022/05/30 04:36:33;;;;;;;9.65;1.60;;;;;;;;;;4990248;28;20085;-65
2022/05/30 04:38:59;;;;;;;8.13;1.10;;;;;;;;;;4991490;28;20795;-66
2022/05/30 04:41:24;;;;;;;10.05;1.60;;;;;;;;;;4991372;28;20049;-66
2022/05/30 04:43:49;;;;;;;4.22;1.30;;;;;;;;;;4991548;28;20728;-65
2022/05/30 04:46:16;;;;;;;4.30;1.08;;;;;;;;;;4988662;28;20129;-63
2022/05/30 04:48:42;;;;;;;4.28;0.90;;;;;;;;;;4992057;28;20814;-64
2022/05/30 04:51:07;;;;;;;3.72;0.90;;;;;;;;;;4990767;28;20037;-64
2022/05/30 04:53:33;;;;;;;6.57;1.00;;;;;;;;;;4992017;28;20096;-64
2022/05/30 04:56:01;;;;;;;8.85;0.93;;;;;;;;;;4972491;28;20087;-67
2022/05/30 04:58:28;;;;;;;3.15;0.60;;;;;;;;;;4984330;28;20833;-67
2022/05/30 05:01:01;;;;;;;4.25;0.90;;;;;;;;;;4968373;28;20054;-67
2022/05/30 05:03:30;;;;;;;4.35;0.85;;;;;;;;;;4991539;28;20123;-69
2022/05/30 05:06:00;;;;;;;6.40;0.80;;;;;;;;;;4970445;28;22356;-69
2022/05/30 05:08:32;;;;;;;5.63;0.80;;;;;;;;;;4965390;28;21246;-68
2022/05/30 05:11:12;;;;;;;5.15;0.90;;;;;;;;;;4970335;28;20033;-67
2022/05/30 05:13:37;;;;;;;5.65;1.00;;;;;;;;;;4959945;28;20045;-67
2022/05/30 05:16:03;;;;;;;2.35;0.65;;;;;;;;;;4960079;28;20026;-66
2022/05/30 05:18:30;;;;;;;2.60;0.70;;;;;;;;;;4970325;28;20077;-68
2022/05/30 05:20:56;;;;;;;3.53;0.75;;;;;;;;;;4987774;28;20783;-68
2022/05/30 05:23:26;;;;;;;3.10;0.60;;;;;;;;;;4988798;28;20115;-67
2022/05/30 05:25:52;;;;;;;3.47;0.80;;;;;;;;;;4985988;28;20994;-66
2022/05/30 05:28:19;;;;;;;5.07;0.75;;;;;;;;;;4982596;28;20356;-68
2022/05/30 05:30:45;;;;;;;3.25;0.73;;;;;;;;;;4986414;28;20950;-67
2022/05/30 05:33:11;;;;;;;5.55;0.70;;;;;;;;;;4983808;28;20194;-67
2022/05/30 05:35:42;;;;;;;7.65;1.10;;;;;;;;;;4986351;28;20084;-68
2022/05/30 05:38:08;;;;;;;4.75;0.90;;;;;;;;;;4979235;28;20584;-67
2022/05/30 05:40:37;;;;;;;6.13;0.90;;;;;;;;;;4969629;28;20219;-68
2022/05/30 05:43:02;;;;;;;5.88;0.73;;;;;;;;;;4967895;28;20612;-68
2022/05/30 05:45:27;;;;;;;4.05;0.70;;;;;;;;;;4971493;28;20141;-70
2022/05/30 05:47:56;;;;;;;5.78;0.80;;;;;;;;;;4975206;28;20128;-66
2022/05/30 05:50:21;;;;;;;5.28;0.70;;;;;;;;;;4984876;28;20045;-70
2022/05/30 05:52:46;;;;;;;4.30;0.70;;;;;;;;;;4969520;28;20030;-66
2022/05/30 05:55:12;;;;;;;6.68;0.90;;;;;;;;;;4967736;28;20038;-70
2022/05/30 05:57:37;;;;;;;6.85;0.98;;;;;;;;;;4969206;28;20369;-69
2022/05/30 06:00:07;;;;;;;5.00;0.70;;;;;;;;;;4972326;28;20030;-67
2022/05/30 06:02:33;;;;;;;4.93;0.80;;;;;;;;;;4973023;28;20057;-68
2022/05/30 06:04:58;;;;;;;5.10;1.00;;;;;;;;;;4972766;28;20052;-69
2022/05/30 06:07:25;;;;;;;3.22;0.70;;;;;;;;;;4974568;28;20045;-70
2022/05/30 06:09:53;;;;;;;4.25;0.80;;;;;;;;;;4972593;28;20140;-70
2022/05/30 06:12:20;;;;;;;4.38;0.80;;;;;;;;;;4958165;28;20034;-67
2022/05/30 06:14:46;;;;;;;5.78;0.82;;;;;;;;;;4954857;28;20052;-70
2022/05/30 06:17:11;;;;;;;5.00;0.80;;;;;;;;;;4970618;28;20038;-69
2022/05/30 06:19:36;;;;;;;7.07;0.80;;;;;;;;;;4973533;28;20043;-69
2022/05/30 06:22:02;;;;;;;5.20;0.90;;;;;;;;;;4974910;28;20140;-68
2022/05/30 06:24:27;;;;;;;5.68;1.00;;;;;;;;;;4970210;28;20037;-67
2022/05/30 06:26:52;;;;;;;4.85;0.82;;;;;;;;;;4973595;28;20103;-67
2022/05/30 06:29:21;;;;;;;3.58;0.95;;;;;;;;;;4972489;28;21041;-69
2022/05/30 06:31:46;;;;;;;2.45;0.75;;;;;;;;;;4973576;28;20042;-70
2022/05/30 06:34:12;;;;;;;5.20;0.85;;;;;;;;;;4970397;28;20576;-67
2022/05/30 06:36:38;;;;;;;3.10;0.60;;;;;;;;;;4974038;28;20034;-67
2022/05/30 06:39:04;;;;;;;4.45;0.90;;;;;;;;;;4975310;28;20033;-70
2022/05/30 06:41:32;;;;;;;6.10;1.10;;;;;;;;;;4973017;28;20047;-70
2022/05/30 06:44:04;;;;;;;5.15;0.80;;;;;;;;;;4974596;28;20038;-70
2022/05/30 06:46:30;;;;;;;4.20;0.80;;;;;;;;;;4970972;28;20034;-69
2022/05/30 06:48:56;;;;;;;5.25;0.80;;;;;;;;;;4969068;28;20064;-70
2022/05/30 06:51:23;;;;;;;4.55;0.88;;;;;;;;;;4972107;28;20148;-69
2022/05/30 06:53:48;;;;;;;4.80;0.90;;;;;;;;;;4969308;28;20045;-68
2022/05/30 06:56:14;;;;;;;2.42;0.70;;;;;;;;;;4968022;28;20036;-70
2022/05/30 06:58:40;;;;;;;4.13;0.75;;;;;;;;;;4985338;28;20034;-70
2022/05/30 07:01:06;;;;;;;4.30;0.70;;;;;;;;;;4969567;28;20598;-70
2022/05/30 07:03:31;;;;;;;3.17;0.50;;;;;;;;;;4968150;28;20034;-69
2022/05/30 07:05:57;;;;;;;6.18;1.05;;;;;;;;;;4969988;28;20328;-70
2022/05/30 07:08:23;;;;;;;6.65;0.93;;;;;;;;;;4961397;28;20037;-71
2022/05/30 07:10:48;;;;;;;5.63;0.90;;;;;;;;;;4970679;28;20034;-68
2022/05/30 07:13:14;;;;;;;2.15;0.60;;;;;;;;;;4972753;28;20704;-69
2022/05/30 07:15:43;;;;;;;3.33;0.70;;;;;;;;;;4976495;28;20856;-70
2022/05/30 07:18:12;;;;;;;4.65;0.80;;;;;;;;;;4980676;28;26672;-69
2022/05/30 07:20:37;;;;;;;4.28;0.70;;;;;;;;;;4973390;28;20068;-68
2022/05/30 07:23:03;;;;;;;4.43;0.80;;;;;;;;;;4971786;28;20042;-69
2022/05/30 07:25:28;;;;;;;6.63;0.80;;;;;;;;;;4961362;28;20034;-69
2022/05/30 07:27:54;;;;;;;4.40;0.70;;;;;;;;;;4964488;28;20064;-68
2022/05/30 07:30:19;;;;;;;4.93;0.80;;;;;;;;;;4971146;28;21737;-67
2022/05/30 07:32:44;;;;;;;4.28;0.63;;;;;;;;;;4947648;28;20033;-68
2022/05/30 07:35:10;;;;;;;6.97;1.10;;;;;;;;;;4978707;28;20107;-67
2022/05/30 07:37:36;;;;;;;3.08;0.95;;;;;;;;;;4944725;28;20030;-67
2022/05/30 07:40:01;;;;;;;2.78;0.60;;;;;;;;;;4995507;28;20548;-68
2022/05/30 07:42:27;;;;;;;4.50;0.90;;;;;;;;;;4990500;28;21923;-69
2022/05/30 07:44:53;;;;;;;2.83;0.70;;;;;;;;;;4980274;28;20034;-68
2022/05/30 07:47:18;;;;;;;3.20;0.80;;;;;;;;;;4947769;28;20038;-68
2022/05/30 07:49:47;;;;;;;7.28;1.17;;;;;;;;;;4960884;28;20076;-68
2022/05/30 07:52:12;;;;;;;4.95;1.10;;;;;;;;;;4985433;28;20057;-68
2022/05/30 07:54:37;;;;;;;5.97;1.00;;;;;;;;;;4971999;28;20837;-68
2022/05/30 07:57:04;;;;;;;6.80;1.00;;;;;;;;;;4963108;28;20721;-70
2022/05/30 07:59:32;;;;;;;4.47;0.70;;;;;;;;;;4982305;28;20034;-69
2022/05/30 08:01:59;;;;;;;5.28;0.85;;;;;;;;;;4968952;28;20049;-68
2022/05/30 08:04:24;;;;;;;4.15;0.90;;;;;;;;;;4962340;28;20533;-68
2022/05/30 08:06:51;;;;;;;4.28;0.70;;;;;;;;;;4985903;28;20044;-68
2022/05/30 08:09:16;;;;;;;4.63;0.77;;;;;;;;;;4983440;28;20805;-71
2022/05/30 08:11:42;;;;;;;5.22;0.80;;;;;;;;;;4970738;28;20034;-69
2022/05/30 08:14:07;;;;;;;2.88;0.70;;;;;;;;;;4970481;28;20033;-69
2022/05/30 08:16:37;;;;;;;4.78;1.08;;;;;;;;;;4967541;28;20108;-71
2022/05/30 08:19:03;;;;;;;4.70;0.93;;;;;;;;;;4969214;28;20034;-67
2022/05/30 08:21:28;;;;;;;3.38;0.70;;;;;;;;;;4973991;28;20150;-70
2022/05/30 08:23:53;;;;;;;4.70;0.93;;;;;;;;;;4973921;28;20148;-69
2022/05/30 08:26:18;;;;;;;6.07;0.80;;;;;;;;;;4973719;28;20064;-70
2022/05/30 08:28:45;;;;;;;7.07;0.98;;;;;;;;;;4956647;28;20318;-69
2022/05/30 08:31:10;;;;;;;4.30;0.98;;;;;;;;;;4975362;28;20044;-70
2022/05/30 08:33:36;;;;;;;5.22;0.90;;;;;;;;;;4985242;28;20111;-69
2022/05/30 08:36:03;;;;;;;3.53;0.70;;;;;;;;;;4989875;28;20128;-67
2022/05/30 08:38:36;;;;;;;3.45;1.00;;;;;;;;;;4989618;28;20040;-70
2022/05/30 08:43:50;;;;;;;6.38;1.20;;;;;;;;;;4981641;28;20092;-75
2022/05/30 08:46:24;;;;;;;4.03;1.00;;;;;;;;;;4971799;28;20034;-69
2022/05/30 08:49:10;;;;;;;4.65;0.90;;;;;;;;;;4982797;28;20042;-69
2022/05/30 08:51:38;;;;;;;4.55;0.93;;;;;;;;;;4971388;28;22488;-71
2022/05/30 08:54:10;;;;;;;2.95;0.90;;;;;;;;;;4989498;28;20914;-70
2022/05/30 08:56:40;;;;;;;3.38;0.80;;;;;;;;;;4993017;28;20041;-69
2022/05/30 08:59:05;;;;;;;5.53;0.80;;;;;;;;;;4992505;28;20048;-71
2022/05/30 09:01:37;;;;;;;5.13;1.10;;;;;;;;;;4986687;28;20100;-71
2022/05/30 09:04:22;;;;;;;3.33;0.82;;;;;;;;;;4989168;28;20836;-69
2022/05/30 09:06:47;;;;;;;3.63;0.90;;;;;;;;;;4984495;28;20036;-70
2022/05/30 09:09:15;;;;;;;3.75;0.70;;;;;;;;;;4973828;28;20622;-68
2022/05/30 09:11:46;;;;;;;3.45;0.90;;;;;;;;;;4987126;28;20084;-69
2022/05/30 09:14:15;;;;;;;5.30;0.82;;;;;;;;;;4989222;28;20460;-72
2022/05/30 09:16:44;;;;;;;4.50;0.95;;;;;;;;;;4981381;28;20759;-72
2022/05/30 09:19:11;;;;;;;2.67;0.80;;;;;;;;;;4994685;28;20107;-69
2022/05/30 09:21:39;;;;;;;4.13;1.10;;;;;;;;;;4995839;28;20041;-69
2022/05/30 09:24:05;;;;;;;6.72;1.10;;;;;;;;;;4992651;28;20038;-69
2022/05/30 09:26:35;;;;;;;4.60;1.00;;;;;;;;;;4989639;28;20033;-70
2022/05/30 09:29:04;;;;;;;3.42;0.70;;;;;;;;;;4972072;28;20066;-69
2022/05/30 09:31:37;;;;;;;7.00;0.95;;;;;;;;;;4971236;28;20890;-71
2022/05/30 09:34:23;;;;;;;4.20;0.80;;;;;;;;;;4972748;28;20034;-71
2022/05/30 09:36:49;;;;;;;3.92;0.80;;;;;;;;;;4974700;28;20872;-71
2022/05/30 09:39:16;;;;;;;4.22;0.82;;;;;;;;;;4967640;28;20223;-70
2022/05/30 09:41:41;;;;;;;4.00;1.00;;;;;;;;;;4978184;28;20068;-71
2022/05/30 09:44:27;;;;;;;4.93;0.82;;;;;;;;;;4970411;28;20042;-69
2022/05/30 09:47:01;;;;;;;3.17;0.70;;;;;;;;;;4960361;28;20080;-71
2022/05/30 09:49:37;;;;;;;5.53;1.10;;;;;;;;;;4968633;28;20057;-70
2022/05/30 09:52:21;;;;;;;4.55;0.88;;;;;;;;;;4976302;28;20117;-71
2022/05/30 09:54:48;;;;;;;3.85;0.70;;;;;;;;;;4970966;28;20030;-69
2022/05/30 09:57:22;;;;;;;4.45;0.70;;;;;;;;;;4968638;28;20611;-69
2022/05/30 09:59:49;;;;;;;5.28;0.82;;;;;;;;;;4970771;28;20071;-69
2022/05/30 10:02:33;;;;;;;4.97;0.80;;;;;;;;;;4967752;28;20061;-69
2022/05/30 10:05:01;;;;;;;4.18;0.90;;;;;;;;;;4970210;28;20132;-70
2022/05/30 10:07:27;;;;;;;2.70;0.60;;;;;;;;;;4965012;28;20173;-73
2022/05/30 10:10:00;;;;;;;4.97;0.98;;;;;;;;;;4969052;28;20042;-69
2022/05/30 10:12:30;;;;;;;2.22;0.80;;;;;;;;;;4979447;28;20299;-69
2022/05/30 10:14:55;;;;;;;2.38;0.57;;;;;;;;;;4967265;28;20250;-69
2022/05/30 10:17:28;;;;;;;3.35;0.65;;;;;;;;;;4964543;28;20057;-71
2022/05/30 10:19:54;;;;;;;3.08;0.52;;;;;;;;;;4971330;28;22659;-69
2022/05/30 10:28:27;;;;;;;3.35;0.90;;;;;;;;;;4991066;28;20072;-68
2022/05/30 10:31:02;;;;;;;3.22;0.63;;;;;;;;;;4982318;28;20029;-68
2022/05/30 10:33:37;;;;;;;6.78;0.90;;;;;;;;;;4992199;28;20441;-69
2022/05/30 10:36:11;;;;;;;3.83;0.90;;;;;;;;;;4989166;28;20029;-69
2022/05/30 10:38:56;;;;;;;3.75;0.75;;;;;;;;;;4999931;28;21927;-69
2022/05/30 10:41:23;;;;;;;5.97;1.05;;;;;;;;;;4982466;28;20079;-69
2022/05/30 10:43:57;;;;;;;4.50;0.80;;;;;;;;;;4991348;28;20037;-69
2022/05/30 10:46:27;;;;;;;2.75;0.68;;;;;;;;;;4988971;28;20119;-70
2022/05/30 10:48:52;;;;;;;4.22;0.60;;;;;;;;;;5007578;28;20037;-70
2022/05/30 10:51:27;;;;;;;4.07;0.80;;;;;;;;;;4990882;28;20117;-72
2022/05/30 10:54:16;;;;;;;3.72;0.70;;;;;;;;;;4988361;28;20026;-70
2022/05/30 10:56:47;;;;;;;3.53;0.82;;;;;;;;;;4990175;28;20953;-73
2022/05/30 10:59:31;;;;;;;5.10;1.00;;;;;;;;;;4994204;28;20744;-71
2022/05/30 11:01:58;;;;;;;3.63;0.80;;;;;;;;;;4992943;28;20052;-70
2022/05/30 11:04:24;;;;;;;4.45;0.80;;;;;;;;;;4991438;28;20623;-72
2022/05/30 11:06:51;;;;;;;3.28;0.90;;;;;;;;;;4993630;28;20030;-72
2022/05/30 11:09:19;;;;;;;4.60;0.85;;;;;;;;;;5009842;28;20955;-71
2022/05/30 11:11:50;;;;;;;2.35;0.93;;;;;;;;;;4983228;28;20029;-71
2022/05/30 11:14:21;;;;;;;3.75;0.90;;;;;;;;;;4986703;28;21940;-71
2022/05/30 11:17:05;;;;;;;4.22;0.95;;;;;;;;;;4968328;28;20592;-71
2022/05/30 11:19:35;;;;;;;2.20;0.80;;;;;;;;;;4968834;28;20810;-72
2022/05/30 11:22:05;;;;;;;5.13;0.90;;;;;;;;;;4980450;28;20049;-71
2022/05/30 11:24:31;;;;;;;5.20;0.70;;;;;;;;;;4970663;28;20034;-73
2022/05/30 11:27:06;;;;;;;3.05;0.73;;;;;;;;;;4987908;28;20044;-70
2022/05/30 11:29:39;;;;;;;3.63;0.70;;;;;;;;;;4990173;28;20034;-72
2022/05/30 11:32:05;;;;;;;;;;;;;;;;;;4970684;28;20065;-71
2022/05/30 11:34:42;;;;;;;4.57;0.95;;;;;;;;;;4969502;28;19925;-72
2022/05/30 11:37:15;;;;;;;2.78;0.60;;;;;;;;;;4975376;28;20376;-70
2022/05/30 11:39:55;;;;;;;3.47;1.13;;;;;;;;;;4968011;28;20411;-71
2022/05/30 11:42:56;;;;;;;6.00;0.70;;;;;;;;;;4971000;28;21303;-71
2022/05/30 11:45:22;;;;;;;3.92;0.82;;;;;;;;;;4943420;28;20144;-71
2022/05/30 11:47:47;;;;;;;3.25;0.80;;;;;;;;;;4964793;28;20045;-71
2022/05/30 11:50:16;;;;;;;5.05;0.82;;;;;;;;;;4980311;28;20030;-71
2022/05/30 11:53:02;;;;;;;3.60;0.70;;;;;;;;;;4976316;28;20816;-68
2022/05/30 11:55:37;;;;;;;2.22;0.70;;;;;;;;;;4981620;28;20991;-69
2022/05/30 11:58:10;;;;;;;3.97;1.05;;;;;;;;;;4971464;28;20120;-72
2022/05/30 12:00:38;;;;;;;4.93;0.88;;;;;;;;;;4973345;28;20129;-74
2022/05/30 12:03:05;;;;;;;5.03;0.70;;;;;;;;;;4969470;28;20663;-71
2022/05/30 12:05:45;;;;;;;2.30;0.70;;;;;;;;;;4966703;28;20068;-72
2022/05/30 12:08:31;;;;;;;4.45;0.80;;;;;;;;;;4966922;28;20072;-72
2022/05/30 12:11:02;;;;;;;2.65;0.85;;;;;;;;;;4967100;28;20154;-73
2022/05/30 12:13:32;;;;;;;4.30;0.80;;;;;;;;;;4961115;28;20479;-72
2022/05/30 12:16:05;;;;;;;5.60;0.75;;;;;;;;;;4976446;28;20100;-71
2022/05/30 12:24:21;;;;;;;3.47;0.70;;;;;;;;;;4986779;28;20046;-69
2022/05/30 12:26:49;;;;;;;3.63;0.65;;;;;;;;;;4995556;28;20413;-72
2022/05/30 12:29:33;;;;;;;2.50;0.80;;;;;;;;;;4981893;28;20045;-73
2022/05/30 12:32:07;;;;;;;5.30;0.95;;;;;;;;;;4969542;28;20029;-72
2022/05/30 12:34:51;;;;;;;3.00;0.70;;;;;;;;;;4972019;28;20754;-72
2022/05/30 12:37:16;;;;;;;3.00;0.88;;;;;;;;;;4999374;28;20041;-71
2022/05/30 12:39:41;;;;;;;2.25;0.60;;;;;;;;;;4975929;28;21952;-72
2022/05/30 12:42:26;;;;;;;4.35;0.70;;;;;;;;;;4978088;28;20214;-72
2022/05/30 12:44:54;;;;;;;3.72;0.70;;;;;;;;;;4970177;28;21830;-69
2022/05/30 12:47:27;;;;;;;3.63;0.80;;;;;;;;;;4961799;28;20122;-70
2022/05/30 12:50:12;;;;;;;4.05;0.70;;;;;;;;;;4966365;28;20596;-71
2022/05/30 12:52:52;;;;;;;2.75;0.90;;;;;;;;;;4965802;28;20064;-71
2022/05/30 12:55:30;;;;;;;2.40;0.70;;;;;;;;;;4982875;28;20037;-72
2022/05/30 12:57:55;;;;;;;2.53;0.70;;;;;;;;;;4992814;28;20041;-70
2022/05/30 13:00:21;;;;;;;2.45;0.63;;;;;;;;;;4986281;28;20600;-70
2022/05/30 13:02:57;;;;;;;3.60;0.88;;;;;;;;;;4998326;28;20270;-71
2022/05/30 13:05:43;;;;;;;4.95;0.77;;;;;;;;;;4966921;28;20037;-69
2022/05/30 13:08:27;;;;;;;4.50;1.08;;;;;;;;;;4975349;28;20044;-68
2022/05/30 13:10:55;;;;;;;2.47;0.57;;;;;;;;;;4972888;28;20477;-68
2022/05/30 13:13:28;;;;;;;3.25;0.73;;;;;;;;;;4991870;28;20038;-69
2022/05/30 13:16:01;;;;;;;3.20;0.80;;;;;;;;;;4967338;28;20065;-70
2022/05/30 13:18:27;;;;;;;3.88;0.85;;;;;;;;;;4970242;28;20651;-68
2022/05/30 13:21:00;;;;;;;4.13;0.90;;;;;;;;;;4980718;28;20144;-69
2022/05/30 13:23:29;;;;;;;7.70;1.00;;;;;;;;;;4965739;28;20686;-71
2022/05/30 13:25:55;;;;;;;8.25;1.15;;;;;;;;;;4977394;28;20129;-70
2022/05/30 13:28:21;;;;;;;2.70;0.60;;;;;;;;;;4965302;28;20261;-70
2022/05/30 13:30:46;;;;;;;3.22;0.80;;;;;;;;;;4964482;28;20136;-69
2022/05/30 13:33:23;;;;;;;4.03;0.70;;;;;;;;;;4981832;28;20032;-68
2022/05/30 13:35:57;;;;;;;6.75;0.70;;;;;;;;;;4969873;28;20589;-70
2022/05/30 13:38:27;;;;;;;4.07;0.80;;;;;;;;;;4971635;28;20038;-72
2022/05/30 13:40:52;;;;;;;5.13;0.70;;;;;;;;;;4970113;28;20141;-70
2022/05/30 13:43:19;;;;;;;3.30;0.60;;;;;;;;;;4971860;28;20216;-70
2022/05/30 13:45:46;;;;;;;2.42;0.77;;;;;;;;;;4969901;28;20035;-70
2022/05/30 13:48:14;;;;;;;3.50;0.63;;;;;;;;;;4971356;28;20038;-69
2022/05/30 13:50:39;;;;;;;3.50;0.60;;;;;;;;;;4989012;28;20776;-70
2022/05/30 13:53:08;;;;;;;2.78;0.68;;;;;;;;;;4987823;28;20033;-69
2022/05/30 13:55:33;;;;;;;2.30;0.57;;;;;;;;;;4987210;28;20119;-70
2022/05/30 13:58:01;;;;;;;4.45;0.80;;;;;;;;;;5001812;28;21985;-69
2022/05/30 14:00:34;;;;;;;3.38;1.13;;;;;;;;;;4990850;28;20128;-76
2022/05/30 14:02:59;;;;;;;5.65;0.60;;;;;;;;;;4983928;28;20041;-67
2022/05/30 14:05:32;;;;;;;4.53;0.63;;;;;;;;;;4971802;28;20041;-67
2022/05/30 14:08:02;;;;;;;5.10;0.82;;;;;;;;;;4969485;28;20155;-66
2022/05/30 14:10:28;;;;;;;3.40;0.80;;;;;;;;;;4971214;28;20137;-69
2022/05/30 14:12:56;;;;;;;2.80;0.68;;;;;;;;;;4974742;28;20037;-69
2022/05/30 14:15:31;;;;;;;1.80;0.60;;;;;;;;;;4970162;28;20045;-68
2022/05/30 14:17:56;;;;;;;4.95;1.05;;;;;;;;;;4969846;28;20084;-68
2022/05/30 14:20:25;;;;;;;5.18;0.85;;;;;;;;;;4972138;28;20168;-68
2022/05/30 14:23:07;;;;;;;3.00;0.60;;;;;;;;;;4972961;28;20752;-70
2022/05/30 14:25:36;;;;;;;2.90;0.82;;;;;;;;;;4971864;28;20525;-67
2022/05/30 14:28:08;;;;;;;3.72;0.70;;;;;;;;;;4972383;28;20987;-68
2022/05/30 14:30:33;;;;;;;3.25;0.68;;;;;;;;;;4973267;28;20041;-67
2022/05/30 14:33:05;;;;;;;3.40;0.70;;;;;;;;;;4983543;28;20033;-67
2022/05/30 14:35:31;;;;;;;3.67;0.70;;;;;;;;;;4969028;28;20122;-69
2022/05/30 14:37:56;;;;;;;1.45;0.55;;;;;;;;;;4968550;28;20049;-71
2022/05/30 14:40:29;;;;;;;7.57;0.77;;;;;;;;;;4970184;28;20034;-70
2022/05/30 14:42:59;;;;;;;3.75;0.90;;;;;;;;;;4972929;28;20069;-68
2022/05/30 14:45:29;;;;;;;4.22;1.00;;;;;;;;;;4968405;28;20045;-68
2022/05/30 14:48:11;;;;;;;5.72;1.00;;;;;;;;;;4995526;28;20037;-67
2022/05/30 14:50:56;;;;;;;3.10;0.90;;;;;;;;;;4990080;28;20124;-69
2022/05/30 14:53:24;;;;;;;5.82;0.82;;;;;;;;;;4993554;28;20034;-70
2022/05/30 14:55:51;;;;;;;4.53;0.75;;;;;;;;;;5003357;28;20140;-69
2022/05/30 14:58:17;;;;;;;1.90;0.55;;;;;;;;;;4988991;28;20408;-69
2022/05/30 15:00:56;;;;;;;5.05;0.90;;;;;;;;;;4990065;28;20167;-68
2022/05/30 15:06:09;;;;;;;2.67;0.65;;;;;;;;;;4991711;28;20044;-72
2022/05/30 15:08:37;;;;;;;3.80;0.68;;;;;;;;;;4975654;28;20132;-65
2022/05/30 15:11:19;;;;;;;2.80;0.80;;;;;;;;;;4988905;28;20022;-65
2022/05/30 15:13:45;;;;;;;3.35;0.68;;;;;;;;;;4992647;28;20029;-65
2022/05/30 15:16:11;;;;;;;2.53;0.70;;;;;;;;;;4990851;28;21600;-65